Terminal Aerodrome Forecast
Issued by NWS Wilmington, NC

Home | Current Version | Previous Version | Text Only | Print | Product List | Glossary On
Versions: 1 2 3 4 5 6 7 8 9 10 11 12 13 14 15 16 17 18 19 20 21
000
FTUS42 KILM 171700
TAFLBT
TAF
KLBT 171728Z 1718/1818 04005KT P6SM BKN020 BKN060
     FM172000 04005KT P6SM VCSH SCT020 BKN035
     FM180300 03004KT 6SM BR BKN015
     FM180600 03003KT 3SM BR SCT005 BKN012
     FM181400 05006KT 6SM BR SCT012 OVC030
     FM181500 05006KT P6SM BKN012 OVC025=

USA.gov is the U.S. government's official web portal to all federal, state and local government web resources and services.